createdAt,value
2022-09-28T00:00:19.114Z,6.89
2022-09-28T00:02:48.609Z,6.87
2022-09-28T00:05:18.274Z,6.73
2022-09-28T00:07:47.666Z,6.70
2022-09-28T00:10:17.194Z,6.84
2022-09-28T00:12:49.153Z,6.82
2022-09-28T00:15:18.954Z,6.68
2022-09-28T00:17:48.325Z,6.65
2022-09-28T00:20:18.158Z,6.67
2022-09-28T00:22:47.570Z,6.69
2022-09-28T00:25:17.391Z,6.66
2022-09-28T00:27:52.575Z,6.62
2022-09-28T00:30:21.959Z,6.64
2022-09-28T00:32:51.327Z,6.56
2022-09-28T00:35:20.730Z,6.51
2022-09-28T00:37:52.196Z,6.43
2022-09-28T00:40:21.679Z,6.45
2022-09-28T00:42:53.686Z,6.47
2022-09-28T00:45:24.470Z,6.44
2022-09-28T00:47:57.765Z,6.40
2022-09-28T00:50:30.211Z,6.37
2022-09-28T00:53:03.601Z,6.31
2022-09-28T00:55:37.678Z,6.26
2022-09-28T00:58:11.935Z,6.18
2022-09-28T01:00:42.744Z,6.20
2022-09-28T01:03:14.270Z,6.20
2022-09-28T01:05:43.732Z,6.18
2022-09-28T01:08:14.257Z,6.16
2022-09-28T01:10:43.834Z,6.20
2022-09-28T01:13:16.305Z,6.19
2022-09-28T01:15:52.307Z,6.17
2022-09-28T01:18:25.307Z,6.14
2022-09-28T01:20:59.261Z,6.14
2022-09-28T01:23:51.589Z,6.10
2022-09-28T01:27:08.385Z,6.00
2022-09-28T01:29:50.185Z,6.03
2022-09-28T01:32:33.752Z,6.03
2022-09-28T01:35:06.646Z,6.04
2022-09-28T01:37:39.942Z,6.00
2022-09-28T01:40:10.546Z,5.97
2022-09-28T01:42:42.052Z,5.92
2022-09-28T01:45:19.191Z,5.88
2022-09-28T01:47:49.694Z,5.83
2022-09-28T01:50:22.377Z,5.80
2022-09-28T01:52:55.734Z,5.76
2022-09-28T01:55:31.485Z,5.74
2022-09-28T01:58:04.617Z,5.75
2022-09-28T02:00:37.764Z,5.74
2022-09-28T02:03:10.951Z,5.72
2022-09-28T02:05:42.218Z,5.73
2022-09-28T02:08:13.829Z,5.73
2022-09-28T02:10:45.494Z,5.75
2022-09-28T02:13:18.044Z,5.70
2022-09-28T02:15:54.525Z,5.65
2022-09-28T02:18:24.041Z,5.64
2022-09-28T02:20:58.560Z,5.62
2022-09-28T02:23:29.763Z,5.60
2022-09-28T02:26:03.997Z,5.59
2022-09-28T02:28:33.435Z,5.60
2022-09-28T02:31:05.533Z,5.62
2022-09-28T02:33:39.142Z,5.60
2022-09-28T02:36:09.548Z,5.58
2022-09-28T02:38:39.461Z,5.56
2022-09-28T02:41:14.115Z,5.53
2022-09-28T02:43:52.980Z,5.51
2022-09-28T02:46:31.064Z,5.51
2022-09-28T02:49:30.443Z,5.51
2022-09-28T02:52:18.180Z,5.51
2022-09-28T02:55:15.665Z,5.57
2022-09-28T02:57:55.409Z,5.77
2022-09-28T03:00:26.038Z,5.81
2022-09-28T03:03:04.341Z,5.99
2022-09-28T03:05:39.029Z,6.01
2022-09-28T03:08:13.225Z,5.88
2022-09-28T03:10:46.156Z,5.83
2022-09-28T03:13:16.679Z,5.65
2022-09-28T03:15:49.000Z,5.50
2022-09-28T03:18:21.233Z,5.52
2022-09-28T03:20:50.662Z,5.58
2022-09-28T03:23:24.723Z,5.70
2022-09-28T03:25:54.925Z,5.63
2022-09-28T03:28:24.505Z,5.58
2022-09-28T03:30:54.010Z,5.73
2022-09-28T03:33:26.110Z,5.76
2022-09-28T03:35:55.600Z,6.04
2022-09-28T03:38:25.033Z,6.16
2022-09-28T03:40:58.530Z,5.89
2022-09-28T03:43:28.788Z,5.50
2022-09-28T03:45:59.752Z,5.38
2022-09-28T03:48:33.429Z,5.36
2022-09-28T03:51:04.830Z,5.34
2022-09-28T03:53:35.712Z,5.32
2022-09-28T03:56:05.604Z,5.32
2022-09-28T03:58:35.184Z,5.33
2022-09-28T04:01:06.566Z,5.30
2022-09-28T04:03:38.584Z,5.26
2022-09-28T04:06:08.124Z,5.24
2022-09-28T04:08:37.516Z,5.24
2022-09-28T04:11:07.254Z,5.20
2022-09-28T04:13:37.118Z,5.22
2022-09-28T04:16:06.671Z,5.31
2022-09-28T04:18:38.746Z,5.44
2022-09-28T04:21:10.026Z,5.49
2022-09-28T04:23:41.698Z,5.86
2022-09-28T04:26:17.084Z,5.67
2022-09-28T04:29:01.641Z,5.70
2022-09-28T04:31:41.394Z,5.55
2022-09-28T04:34:14.709Z,5.70
2022-09-28T04:36:44.119Z,5.65
2022-09-28T04:39:14.315Z,5.33
2022-09-28T04:41:44.307Z,5.19
2022-09-28T04:44:13.661Z,5.19
2022-09-28T04:46:43.043Z,5.14
2022-09-28T04:49:15.475Z,5.09
2022-09-28T04:51:44.898Z,5.05
2022-09-28T04:54:14.434Z,5.03
2022-09-28T04:56:43.971Z,5.04
2022-09-28T04:59:13.474Z,5.14
2022-09-28T05:01:42.896Z,5.31
2022-09-28T05:04:14.867Z,5.39
2022-09-28T05:06:44.262Z,5.26
2022-09-28T05:09:13.703Z,5.07
2022-09-28T05:11:43.177Z,5.00
2022-09-28T05:14:13.888Z,5.18
2022-09-28T05:16:43.325Z,5.35
2022-09-28T05:19:15.842Z,5.10
2022-09-28T05:21:48.785Z,5.09
2022-09-28T05:24:18.181Z,5.05
2022-09-28T05:26:47.553Z,5.00
2022-09-28T05:29:17.077Z,5.17
2022-09-28T05:31:46.659Z,5.22
2022-09-28T05:34:18.653Z,5.00
2022-09-28T05:36:48.317Z,5.09
2022-09-28T05:39:17.806Z,5.32
2022-09-28T05:41:47.362Z,5.39
2022-09-28T05:44:16.890Z,5.39
2022-09-28T05:46:46.416Z,5.25
2022-09-28T05:49:18.362Z,5.40
2022-09-28T05:51:47.727Z,5.30
2022-09-28T05:54:17.304Z,5.32
2022-09-28T05:56:46.813Z,5.61
2022-09-28T05:59:16.699Z,5.81
2022-09-28T06:01:46.125Z,5.73
2022-09-28T06:04:18.944Z,5.54
2022-09-28T06:06:48.434Z,5.43
2022-09-28T06:09:17.811Z,5.34
2022-09-28T06:11:48.328Z,5.36
2022-09-28T06:14:17.821Z,5.42
2022-09-28T06:16:47.748Z,5.44
2022-09-28T06:19:19.823Z,5.50
2022-09-28T06:21:50.278Z,5.50
2022-09-28T06:24:19.709Z,5.54
2022-09-28T06:26:49.094Z,5.59
2022-09-28T06:29:19.813Z,5.54
2022-09-28T06:31:49.869Z,5.59
2022-09-28T06:34:21.846Z,5.67
2022-09-28T06:36:51.354Z,5.65
2022-09-28T06:39:21.123Z,5.65
2022-09-28T06:41:50.546Z,5.71
2022-09-28T06:44:19.950Z,5.70
2022-09-28T06:46:49.314Z,5.62
2022-09-28T06:49:21.287Z,5.60
2022-09-28T06:51:50.749Z,5.51
2022-09-28T06:54:20.177Z,5.60
2022-09-28T06:56:49.529Z,5.58
2022-09-28T06:59:18.906Z,5.74
2022-09-28T07:01:48.333Z,5.81
2022-09-28T07:04:17.846Z,5.84
2022-09-28T07:06:52.618Z,5.64
2022-09-28T07:09:32.490Z,5.69
2022-09-28T07:12:04.297Z,5.64
2022-09-28T07:14:47.280Z,5.73
2022-09-28T07:17:17.427Z,5.82
2022-09-28T07:19:48.018Z,5.92
2022-09-28T07:22:25.817Z,6.04
2022-09-28T07:25:00.659Z,6.08
2022-09-28T07:27:30.488Z,5.80
2022-09-28T07:29:59.881Z,5.88
2022-09-28T07:35:20.895Z,6.13
2022-09-28T07:38:00.396Z,6.15
2022-09-28T07:40:47.493Z,6.31
2022-09-28T07:43:20.587Z,6.66
2022-09-28T07:45:50.627Z,6.85
2022-09-28T07:48:20.616Z,6.56
2022-09-28T07:50:51.746Z,6.37
2022-09-28T07:53:25.056Z,6.28
2022-09-28T07:55:55.097Z,6.46
2022-09-28T07:58:25.066Z,6.74
2022-09-28T08:00:54.551Z,6.77
2022-09-28T08:03:24.739Z,6.60
2022-09-28T08:05:54.246Z,6.66
2022-09-28T08:08:26.934Z,6.70
2022-09-28T08:13:47.431Z,6.61
2022-09-28T08:16:16.899Z,6.48
2022-09-28T08:18:46.426Z,6.43
2022-09-28T08:21:28.301Z,6.45
2022-09-28T08:24:00.246Z,6.41
2022-09-28T08:26:29.643Z,6.52
2022-09-28T08:28:59.165Z,6.56
2022-09-28T08:31:28.549Z,6.58
2022-09-28T08:33:57.954Z,6.74
2022-09-28T08:36:28.289Z,6.92
2022-09-28T08:39:00.269Z,6.95
2022-09-28T08:41:36.812Z,6.80
2022-09-28T08:44:15.704Z,7.13
2022-09-28T08:46:47.752Z,7.20
2022-09-28T08:49:25.485Z,7.16
2022-09-28T08:51:59.983Z,7.13
2022-09-28T08:54:39.051Z,7.15
2022-09-28T08:57:12.059Z,7.23
2022-09-28T08:59:49.470Z,7.35
2022-09-28T09:02:22.774Z,6.99
2022-09-28T09:04:52.652Z,7.02
2022-09-28T09:07:34.974Z,7.08
2022-09-28T09:10:14.804Z,7.34
2022-09-28T09:12:50.117Z,7.24
2022-09-28T09:15:37.590Z,7.21
2022-09-28T09:18:20.044Z,7.41
2022-09-28T09:20:52.483Z,7.35
2022-09-28T09:23:23.058Z,7.48
2022-09-28T09:26:00.170Z,7.72
2022-09-28T09:29:04.574Z,7.89
2022-09-28T09:31:44.861Z,7.79
2022-09-28T09:34:27.833Z,7.80
2022-09-28T09:37:11.194Z,7.79
2022-09-28T09:39:51.332Z,7.83
2022-09-28T09:42:36.945Z,7.95
2022-09-28T09:45:16.107Z,7.76
2022-09-28T09:47:47.111Z,8.02
2022-09-28T09:50:25.255Z,8.38
2022-09-28T09:52:57.418Z,8.44
2022-09-28T09:55:30.318Z,8.86
2022-09-28T09:58:10.230Z,8.86
2022-09-28T10:00:42.346Z,8.38
2022-09-28T10:03:21.872Z,8.80
2022-09-28T10:05:54.396Z,8.93
2022-09-28T10:08:25.399Z,8.99
2022-09-28T10:10:57.238Z,9.12
2022-09-28T10:13:29.253Z,9.31
2022-09-28T10:15:58.701Z,9.23
2022-09-28T10:18:28.793Z,9.35
2022-09-28T10:20:58.170Z,9.42
2022-09-28T10:23:29.909Z,9.38
2022-09-28T10:26:03.206Z,9.09
2022-09-28T10:28:38.658Z,9.22
2022-09-28T10:31:42.189Z,9.11
2022-09-28T10:34:14.903Z,9.15
2022-09-28T10:36:50.437Z,8.68
2022-09-28T10:39:41.077Z,8.74
2022-09-28T10:42:12.640Z,8.84
2022-09-28T10:44:53.406Z,9.07
2022-09-28T10:47:25.124Z,9.08
2022-09-28T10:49:55.488Z,8.78
2022-09-28T10:52:36.590Z,9.13
2022-09-28T10:55:27.126Z,9.04
2022-09-28T10:57:56.538Z,8.87
2022-09-28T11:00:43.109Z,9.01
2022-09-28T11:03:20.898Z,8.95
2022-09-28T11:05:58.565Z,8.74
2022-09-28T11:08:30.452Z,8.81
2022-09-28T11:11:11.490Z,8.98
2022-09-28T11:13:46.250Z,9.23
2022-09-28T11:16:26.475Z,9.69
2022-09-28T11:18:56.026Z,9.71
2022-09-28T11:21:27.733Z,9.63
2022-09-28T11:24:05.960Z,9.83
2022-09-28T11:26:44.150Z,9.88
2022-09-28T11:29:22.862Z,10.00
2022-09-28T11:32:03.311Z,10.15
2022-09-28T11:34:58.158Z,10.22
2022-09-28T11:37:36.069Z,10.38
2022-09-28T11:40:16.174Z,11.08
2022-09-28T11:42:51.474Z,11.23
2022-09-28T11:45:30.050Z,10.07
2022-09-28T11:48:03.534Z,10.26
2022-09-28T11:50:38.592Z,10.12
2022-09-28T11:53:16.014Z,10.50
2022-09-28T11:55:49.595Z,10.08
2022-09-28T11:58:26.004Z,9.83
2022-09-28T12:00:59.672Z,9.97
2022-09-28T12:03:36.084Z,9.88
2022-09-28T12:06:09.307Z,9.96
2022-09-28T12:08:44.653Z,9.84
2022-09-28T12:11:18.534Z,9.85
2022-09-28T12:13:51.499Z,9.91
2022-09-28T12:16:45.729Z,9.99
2022-09-28T12:19:19.690Z,10.09
2022-09-28T12:21:51.726Z,10.00
2022-09-28T12:24:23.914Z,10.02
2022-09-28T12:26:57.486Z,10.04
2022-09-28T12:29:29.769Z,10.05
2022-09-28T12:32:03.796Z,10.08
2022-09-28T12:34:35.774Z,10.06
2022-09-28T12:37:27.017Z,10.30
2022-09-28T12:40:22.553Z,10.60
2022-09-28T12:43:06.983Z,10.40
2022-09-28T12:46:09.744Z,10.98
2022-09-28T12:48:52.975Z,11.44
2022-09-28T12:51:45.577Z,11.36
2022-09-28T12:54:27.682Z,11.57
2022-09-28T12:57:06.958Z,11.44
2022-09-28T12:59:39.109Z,12.32
2022-09-28T13:02:27.270Z,12.73
2022-09-28T13:05:27.998Z,13.59
2022-09-28T13:08:03.979Z,13.37
2022-09-28T13:10:37.034Z,12.81
2022-09-28T13:13:25.751Z,12.22
2022-09-28T13:15:58.508Z,12.58
2022-09-28T13:18:31.382Z,12.40
2022-09-28T13:21:11.381Z,12.31
2022-09-28T13:23:45.358Z,12.44
2022-09-28T13:26:20.114Z,12.68
2022-09-28T13:28:50.274Z,12.45
2022-09-28T13:31:25.802Z,12.24
2022-09-28T13:33:59.221Z,12.05
2022-09-28T13:36:48.045Z,11.65
2022-09-28T13:39:53.162Z,11.61
2022-09-28T13:42:41.687Z,11.56
2022-09-28T13:45:20.538Z,11.47
2022-09-28T13:48:17.609Z,11.35
2022-09-28T13:51:12.958Z,11.26
2022-09-28T13:54:00.023Z,11.26
2022-09-28T13:56:38.679Z,11.16
2022-09-28T13:59:17.159Z,11.07
2022-09-28T14:01:55.690Z,10.99
2022-09-28T14:04:26.410Z,10.82
2022-09-28T14:06:57.976Z,10.76
2022-09-28T14:09:30.174Z,10.75
2022-09-28T14:12:04.285Z,10.76
2022-09-28T14:14:49.493Z,10.62
2022-09-28T14:17:44.826Z,10.48
2022-09-28T14:20:18.146Z,10.50
2022-09-28T14:22:57.850Z,10.52
2022-09-28T14:25:29.660Z,10.35
2022-09-28T14:28:16.798Z,10.27
2022-09-28T14:30:52.081Z,10.29
2022-09-28T14:33:32.110Z,10.28
2022-09-28T14:36:04.679Z,10.35
2022-09-28T14:39:03.030Z,10.31
2022-09-28T14:41:34.860Z,10.38
2022-09-28T14:44:11.849Z,10.47
2022-09-28T14:46:44.785Z,10.42
2022-09-28T14:49:47.563Z,10.47
2022-09-28T14:52:21.568Z,10.43
2022-09-28T14:54:54.536Z,10.43
2022-09-28T14:57:28.939Z,10.63
2022-09-28T15:00:01.242Z,11.25
2022-09-28T15:02:34.159Z,11.37
2022-09-28T15:05:12.637Z,11.19
2022-09-28T15:07:47.642Z,11.32
2022-09-28T15:10:33.821Z,11.24
2022-09-28T15:13:05.327Z,11.16
2022-09-28T15:15:40.077Z,10.99
2022-09-28T15:18:19.370Z,10.86
2022-09-28T15:20:49.837Z,10.78
2022-09-28T15:23:30.829Z,10.67
2022-09-28T15:26:00.182Z,10.65
2022-09-28T15:28:29.741Z,10.62
2022-09-28T15:31:06.126Z,10.56
2022-09-28T15:33:49.034Z,10.66
2022-09-28T15:36:22.157Z,10.67
2022-09-28T15:38:57.065Z,10.61
2022-09-28T15:41:26.918Z,10.59
2022-09-28T15:44:25.335Z,10.58
2022-09-28T15:47:09.274Z,10.57
2022-09-28T15:49:42.777Z,10.49
2022-09-28T15:52:25.495Z,10.43
2022-09-28T15:54:55.071Z,10.39
2022-09-28T15:57:39.509Z,10.35
2022-09-28T16:00:24.850Z,10.45
2022-09-28T16:03:23.269Z,10.73
2022-09-28T16:05:54.781Z,10.52
2022-09-28T16:08:26.114Z,10.36
2022-09-28T16:10:59.906Z,10.42
2022-09-28T16:13:29.381Z,10.26
2022-09-28T16:16:00.552Z,10.11
2022-09-28T16:18:35.720Z,10.06
2022-09-28T16:21:37.625Z,9.95
2022-09-28T16:24:07.445Z,9.79
2022-09-28T16:26:38.901Z,9.70
2022-09-28T16:29:11.186Z,9.71
2022-09-28T16:31:43.847Z,9.68
2022-09-28T16:34:23.081Z,9.65
2022-09-28T16:36:53.235Z,9.64
2022-09-28T16:39:22.953Z,9.55
2022-09-28T16:41:55.650Z,9.47
2022-09-28T16:44:28.415Z,9.38
2022-09-28T16:47:00.231Z,9.37
2022-09-28T16:49:32.970Z,9.30
2022-09-28T16:52:02.419Z,9.23
2022-09-28T16:54:44.466Z,9.22
2022-09-28T16:57:15.241Z,9.18
2022-09-28T16:59:44.693Z,9.10
2022-09-28T17:02:45.799Z,9.02
2022-09-28T17:05:19.381Z,9.03
2022-09-28T17:07:49.725Z,9.01
2022-09-28T17:10:21.361Z,8.89
2022-09-28T17:12:50.725Z,8.83
2022-09-28T17:15:20.396Z,8.62
2022-09-28T17:17:50.516Z,8.50
2022-09-28T17:20:24.747Z,8.44
2022-09-28T17:22:54.211Z,8.43
2022-09-28T17:25:23.842Z,8.44
2022-09-28T17:27:54.562Z,8.45
2022-09-28T17:30:25.820Z,8.40
2022-09-28T17:32:55.406Z,8.33
2022-09-28T17:35:27.358Z,8.29
2022-09-28T17:37:56.836Z,8.27
2022-09-28T17:40:28.335Z,8.16
2022-09-28T17:42:59.739Z,8.02
2022-09-28T17:45:31.337Z,7.87
2022-09-28T17:48:01.155Z,7.91
2022-09-28T17:50:35.193Z,7.91
2022-09-28T17:53:06.447Z,7.84
2022-09-28T17:55:37.653Z,7.82
2022-09-28T17:58:17.277Z,7.85
2022-09-28T18:00:47.023Z,7.86
2022-09-28T18:03:18.271Z,7.86
2022-09-28T18:05:52.709Z,7.83
2022-09-28T18:08:23.973Z,7.78
2022-09-28T18:10:54.654Z,7.75
2022-09-28T18:13:24.017Z,7.64
2022-09-28T18:15:54.406Z,7.56
2022-09-28T18:18:23.963Z,7.48
2022-09-28T18:20:56.008Z,7.50
2022-09-28T18:23:25.519Z,7.50
2022-09-28T18:25:54.891Z,7.51
2022-09-28T18:28:24.335Z,7.72
2022-09-28T18:30:53.762Z,8.09
2022-09-28T18:33:23.250Z,8.17
2022-09-28T18:35:58.248Z,8.00
2022-09-28T18:38:27.615Z,7.75
2022-09-28T18:40:57.079Z,7.78
2022-09-28T18:43:26.678Z,7.87
2022-09-28T18:45:56.259Z,8.09
2022-09-28T18:48:28.013Z,8.35
2022-09-28T18:51:00.156Z,8.01
2022-09-28T18:53:29.522Z,8.21
2022-09-28T18:55:59.164Z,8.35
2022-09-28T18:58:28.539Z,8.21
2022-09-28T19:01:13.487Z,7.65
2022-09-28T19:03:47.345Z,7.41
2022-09-28T19:06:19.879Z,7.31
2022-09-28T19:08:55.623Z,7.26
2022-09-28T19:11:25.704Z,7.21
2022-09-28T19:13:56.109Z,7.23
2022-09-28T19:16:26.689Z,7.13
2022-09-28T19:18:56.236Z,7.09
2022-09-28T19:21:28.506Z,7.08
2022-09-28T19:23:57.874Z,7.12
2022-09-28T19:26:29.685Z,7.24
2022-09-28T19:29:00.772Z,7.23
2022-09-28T19:31:30.928Z,7.15
2022-09-28T19:34:00.394Z,7.11
2022-09-28T19:36:32.652Z,7.14
2022-09-28T19:39:04.319Z,7.13
2022-09-28T19:41:50.195Z,7.39
2022-09-28T19:44:24.750Z,7.38
2022-09-28T19:46:55.825Z,7.53
2022-09-28T19:49:26.365Z,7.34
2022-09-28T19:52:12.759Z,7.24
2022-09-28T19:54:43.933Z,7.10
2022-09-28T19:57:14.511Z,7.03
2022-09-28T19:59:44.025Z,7.04
2022-09-28T20:02:14.293Z,7.08
2022-09-28T20:04:43.701Z,7.10
2022-09-28T20:07:15.769Z,7.10
2022-09-28T20:09:45.180Z,7.11
2022-09-28T20:12:14.584Z,7.07
2022-09-28T20:14:43.973Z,7.09
2022-09-28T20:17:13.366Z,7.08
2022-09-28T20:19:42.750Z,7.05
2022-09-28T20:22:16.518Z,7.04
2022-09-28T20:24:48.893Z,7.03
2022-09-28T20:27:18.308Z,7.02
2022-09-28T20:29:48.205Z,7.00
2022-09-28T20:32:17.611Z,7.02
2022-09-28T20:34:47.010Z,6.99
2022-09-28T20:37:19.407Z,7.00
2022-09-28T20:39:48.901Z,6.99
2022-09-28T20:42:18.489Z,6.98
2022-09-28T20:44:48.010Z,7.00
2022-09-28T20:47:17.445Z,7.03
2022-09-28T20:49:47.591Z,6.98
2022-09-28T20:52:19.565Z,7.01
2022-09-28T20:54:48.991Z,7.02
2022-09-28T20:57:21.371Z,7.00
2022-09-28T20:59:54.483Z,6.98
2022-09-28T21:02:25.210Z,6.97
2022-09-28T21:04:54.638Z,6.96
2022-09-28T21:07:26.757Z,6.98
2022-09-28T21:09:56.322Z,6.97
2022-09-28T21:12:26.082Z,6.99
2022-09-28T21:14:56.033Z,6.97
2022-09-28T21:17:25.514Z,6.94
2022-09-28T21:19:54.902Z,6.97
2022-09-28T21:22:26.883Z,6.93
2022-09-28T21:24:56.263Z,6.96
2022-09-28T21:27:25.687Z,6.95
2022-09-28T21:29:55.241Z,6.94
2022-09-28T21:32:24.979Z,6.91
2022-09-28T21:34:55.738Z,6.91
2022-09-28T21:37:27.729Z,6.88
2022-09-28T21:39:57.106Z,6.85
2022-09-28T21:42:26.489Z,6.86
2022-09-28T21:44:59.347Z,6.86
2022-09-28T21:47:29.826Z,6.85
2022-09-28T21:49:59.204Z,6.82
2022-09-28T21:52:31.468Z,6.75
2022-09-28T21:55:00.868Z,6.74
2022-09-28T21:57:30.270Z,6.71
2022-09-28T21:59:59.808Z,6.71
2022-09-28T22:02:29.862Z,6.67
2022-09-28T22:04:59.515Z,6.68
2022-09-28T22:07:31.610Z,6.62
2022-09-28T22:10:01.016Z,6.58
2022-09-28T22:12:31.624Z,6.53
2022-09-28T22:15:01.099Z,6.51
2022-09-28T22:17:30.483Z,6.45
2022-09-28T22:19:59.904Z,6.42
2022-09-28T22:22:31.885Z,6.42
2022-09-28T22:25:01.297Z,6.40
2022-09-28T22:27:33.299Z,6.35
2022-09-28T22:30:02.678Z,6.46
2022-09-28T22:32:32.064Z,6.39
2022-09-28T22:35:01.465Z,6.32
2022-09-28T22:37:33.540Z,6.32
2022-09-28T22:40:03.959Z,6.27
2022-09-28T22:42:33.351Z,6.22
2022-09-28T22:45:02.725Z,6.17
2022-09-28T22:47:32.105Z,6.15
2022-09-28T22:50:01.506Z,6.13
2022-09-28T22:52:33.447Z,6.11
2022-09-28T22:55:02.831Z,6.07
2022-09-28T22:57:32.231Z,6.05
2022-09-28T23:00:01.790Z,6.05
2022-09-28T23:02:31.218Z,6.00
2022-09-28T23:05:00.622Z,6.00
2022-09-28T23:07:30.022Z,6.00
2022-09-28T23:10:02.003Z,6.06
2022-09-28T23:12:33.331Z,6.11
2022-09-28T23:15:02.708Z,6.46
2022-09-28T23:17:32.096Z,6.49
2022-09-28T23:20:01.463Z,6.39
2022-09-28T23:22:30.838Z,6.37
2022-09-28T23:25:02.787Z,6.49
2022-09-28T23:27:32.180Z,6.69
2022-09-28T23:30:01.546Z,6.81
2022-09-28T23:32:32.080Z,6.71
2022-09-28T23:35:01.658Z,6.31
2022-09-28T23:37:31.107Z,6.53
2022-09-28T23:40:03.681Z,6.43
2022-09-28T23:42:33.358Z,6.13
2022-09-28T23:45:02.769Z,6.11
2022-09-28T23:47:32.121Z,6.21
2022-09-28T23:50:01.853Z,6.11
2022-09-28T23:52:31.318Z,5.91
2022-09-28T23:55:03.306Z,5.66
2022-09-28T23:57:32.710Z,5.71
